createdAt,value
2023-04-27T00:00:10.977Z,3.83
2023-04-27T00:02:56.995Z,3.80
2023-04-27T00:05:42.629Z,3.80
2023-04-27T00:08:28.414Z,3.60
2023-04-27T00:11:13.490Z,4.30
2023-04-27T00:13:59.049Z,3.33
2023-04-27T00:16:44.397Z,3.47
2023-04-27T00:19:29.599Z,3.70
2023-04-27T00:22:14.944Z,3.40
2023-04-27T00:25:00.418Z,3.93
2023-04-27T00:27:45.579Z,3.53
2023-04-27T00:30:31.086Z,3.43
2023-04-27T00:33:17.258Z,3.60
2023-04-27T00:36:02.755Z,4.00
2023-04-27T00:38:48.125Z,4.00
2023-04-27T00:41:33.296Z,3.60
2023-04-27T00:44:25.467Z,3.80
2023-04-27T00:47:11.542Z,3.67
2023-04-27T00:49:56.910Z,3.40
2023-04-27T00:52:44.619Z,3.70
2023-04-27T00:55:30.004Z,3.63
2023-04-27T00:58:15.378Z,3.67
2023-04-27T01:01:01.032Z,4.20
2023-04-27T01:03:47.535Z,4.10
2023-04-27T01:06:33.004Z,4.27
2023-04-27T01:09:18.451Z,4.20
2023-04-27T01:12:03.865Z,3.93
2023-04-27T01:14:49.244Z,3.90
2023-04-27T01:17:34.560Z,4.50
2023-04-27T01:20:20.295Z,4.30
2023-04-27T01:23:07.090Z,4.30
2023-04-27T01:25:54.023Z,4.10
2023-04-27T01:28:39.226Z,4.30
2023-04-27T01:31:24.409Z,3.60
2023-04-27T01:34:09.667Z,4.03
2023-04-27T01:36:55.143Z,4.10
2023-04-27T01:39:40.246Z,3.67
2023-04-27T01:42:26.826Z,4.07
2023-04-27T01:45:11.986Z,4.00
2023-04-27T01:47:57.533Z,4.03
2023-04-27T01:50:42.649Z,4.50
2023-04-27T01:53:28.292Z,4.20
2023-04-27T01:56:13.740Z,4.37
2023-04-27T01:58:59.235Z,4.30
2023-04-27T02:01:44.485Z,4.37
2023-04-27T02:04:29.715Z,4.10
2023-04-27T02:07:15.811Z,4.40
2023-04-27T02:10:01.638Z,4.40
2023-04-27T02:12:46.798Z,4.30
2023-04-27T02:15:32.023Z,3.53
2023-04-27T02:18:18.208Z,3.67
2023-04-27T02:21:08.738Z,3.20
2023-04-27T02:23:55.239Z,3.30
2023-04-27T02:26:42.311Z,3.40
2023-04-27T02:29:31.260Z,3.43
2023-04-27T02:32:17.386Z,3.60
2023-04-27T02:35:03.630Z,3.80
2023-04-27T02:37:49.057Z,3.90
2023-04-27T02:40:34.292Z,3.40
2023-04-27T02:43:19.526Z,3.83
2023-04-27T02:46:05.084Z,3.93
2023-04-27T02:48:50.825Z,3.90
2023-04-27T02:51:36.011Z,3.80
2023-04-27T02:54:21.281Z,3.90
2023-04-27T02:57:06.611Z,4.10
2023-04-27T02:59:52.080Z,4.03
2023-04-27T03:02:37.562Z,4.37
2023-04-27T03:05:26.211Z,4.50
2023-04-27T03:08:11.479Z,4.90
2023-04-27T03:10:57.033Z,4.30
2023-04-27T03:13:42.270Z,4.80
2023-04-27T03:16:27.532Z,4.93
2023-04-27T03:19:12.998Z,4.97
2023-04-27T03:21:58.334Z,5.03
2023-04-27T03:24:43.704Z,4.73
2023-04-27T03:27:29.154Z,5.23
2023-04-27T03:30:14.965Z,5.40
2023-04-27T03:33:00.731Z,5.10
2023-04-27T03:35:58.244Z,5.33
2023-04-27T03:38:43.688Z,5.43
2023-04-27T03:41:31.252Z,4.93
2023-04-27T03:44:16.575Z,5.00
2023-04-27T03:47:02.217Z,5.37
2023-04-27T03:49:47.700Z,5.47
2023-04-27T03:52:32.881Z,5.80
2023-04-27T03:55:18.652Z,5.10
2023-04-27T03:58:04.092Z,5.20
2023-04-27T04:00:50.070Z,5.03
2023-04-27T04:03:35.402Z,4.90
2023-04-27T04:06:23.350Z,5.10
2023-04-27T04:09:08.545Z,5.20
2023-04-27T04:11:54.902Z,4.93
2023-04-27T04:14:40.292Z,5.67
2023-04-27T04:17:26.580Z,5.07
2023-04-27T04:20:12.099Z,4.97
2023-04-27T04:22:57.530Z,4.80
2023-04-27T04:25:42.651Z,4.37
2023-04-27T04:28:27.968Z,4.57
2023-04-27T04:31:13.554Z,4.50
2023-04-27T04:34:01.251Z,4.40
2023-04-27T04:36:46.635Z,4.67
2023-04-27T04:39:31.912Z,4.57
2023-04-27T04:42:17.422Z,4.00
2023-04-27T04:45:03.968Z,4.20
2023-04-27T04:47:49.698Z,4.07
2023-04-27T04:50:35.042Z,4.33
2023-04-27T04:53:20.335Z,4.40
2023-04-27T04:56:10.260Z,4.13
2023-04-27T04:58:55.395Z,4.17
2023-04-27T05:01:40.729Z,4.20
2023-04-27T05:04:25.899Z,4.10
2023-04-27T05:07:11.998Z,3.87
2023-04-27T05:09:59.270Z,4.50
2023-04-27T05:12:45.493Z,4.30
2023-04-27T05:15:31.080Z,4.70
2023-04-27T05:18:16.389Z,4.03
2023-04-27T05:21:02.658Z,4.53
2023-04-27T05:23:48.209Z,4.70
2023-04-27T05:26:33.806Z,4.40
2023-04-27T05:29:19.007Z,4.80
2023-04-27T05:32:04.651Z,4.10
2023-04-27T05:34:50.225Z,4.70
2023-04-27T05:37:35.570Z,4.50
2023-04-27T05:40:20.735Z,4.83
2023-04-27T05:43:06.309Z,4.70
2023-04-27T05:45:52.362Z,4.07
2023-04-27T05:48:37.435Z,4.70
2023-04-27T05:51:22.693Z,4.33
2023-04-27T05:54:08.372Z,4.40
2023-04-27T05:56:53.921Z,4.60
2023-04-27T05:59:39.012Z,4.03
2023-04-27T06:02:24.475Z,4.50
2023-04-27T06:05:10.235Z,3.90
2023-04-27T06:07:55.476Z,4.13
2023-04-27T06:10:40.717Z,3.97
2023-04-27T06:13:25.979Z,4.17
2023-04-27T06:16:11.205Z,3.60
2023-04-27T06:18:57.047Z,3.73
2023-04-27T06:21:42.186Z,3.70
2023-04-27T06:24:27.656Z,3.30
2023-04-27T06:27:12.791Z,3.30
2023-04-27T06:29:58.984Z,3.17
2023-04-27T06:32:44.265Z,3.30
2023-04-27T06:35:29.575Z,3.40
2023-04-27T06:38:14.846Z,3.13
2023-04-27T06:41:00.306Z,3.13
2023-04-27T06:43:45.706Z,3.00
2023-04-27T06:46:31.248Z,3.20
2023-04-27T06:49:16.481Z,3.20
2023-04-27T06:52:03.053Z,3.33
2023-04-27T06:54:48.668Z,3.23
2023-04-27T06:57:34.094Z,3.50
2023-04-27T07:00:19.595Z,3.33
2023-04-27T07:03:05.150Z,3.73
2023-04-27T07:05:50.556Z,2.87
2023-04-27T07:08:36.086Z,3.23
2023-04-27T07:11:21.515Z,3.37
2023-04-27T07:14:06.818Z,2.77
2023-04-27T07:16:51.869Z,2.93
2023-04-27T07:19:37.354Z,3.10
2023-04-27T07:22:22.494Z,2.83
2023-04-27T07:25:09.400Z,3.13
2023-04-27T07:27:54.886Z,3.10
2023-04-27T07:30:40.216Z,3.17
2023-04-27T07:33:25.472Z,3.20
2023-04-27T07:36:10.854Z,3.10
2023-04-27T07:38:56.071Z,3.22
2023-04-27T07:41:41.327Z,3.33
2023-04-27T07:44:29.215Z,3.40
2023-04-27T07:47:14.737Z,3.77
2023-04-27T07:50:00.157Z,3.50
2023-04-27T07:52:45.426Z,4.20
2023-04-27T07:55:30.891Z,3.72
2023-04-27T07:58:16.550Z,3.50
2023-04-27T08:01:01.754Z,3.67
2023-04-27T08:03:47.125Z,4.15
2023-04-27T08:06:33.328Z,3.95
2023-04-27T08:09:19.174Z,3.78
2023-04-27T08:12:04.640Z,3.80
2023-04-27T08:14:49.967Z,4.10
2023-04-27T08:17:35.206Z,3.72
2023-04-27T08:20:20.890Z,3.40
2023-04-27T08:23:06.298Z,3.88
2023-04-27T08:25:51.832Z,3.70
2023-04-27T08:28:36.986Z,3.40
2023-04-27T08:31:22.533Z,3.40
2023-04-27T08:34:07.758Z,3.15
2023-04-27T08:36:53.524Z,3.65
2023-04-27T08:39:39.068Z,3.60
2023-04-27T08:42:24.491Z,3.55
2023-04-27T08:45:09.969Z,4.00
2023-04-27T08:47:55.288Z,3.60
2023-04-27T08:50:44.123Z,3.58
2023-04-27T08:53:29.369Z,3.60
2023-04-27T08:56:14.917Z,3.10
2023-04-27T08:59:00.902Z,3.58
2023-04-27T09:01:47.730Z,3.75
2023-04-27T09:04:42.272Z,3.78
2023-04-27T09:07:28.646Z,3.90
2023-04-27T09:10:14.239Z,3.60
2023-04-27T09:13:00.781Z,3.83
2023-04-27T09:15:51.646Z,3.83
2023-04-27T09:18:37.694Z,3.60
2023-04-27T09:21:28.187Z,4.70
2023-04-27T09:24:13.908Z,3.97
2023-04-27T09:27:00.984Z,4.40
2023-04-27T09:29:46.441Z,4.45
2023-04-27T09:32:32.047Z,4.40
2023-04-27T09:35:23.328Z,4.00
2023-04-27T09:44:37.929Z,3.72
2023-04-27T09:47:23.870Z,3.70
2023-04-27T09:50:12.776Z,3.92
2023-04-27T09:52:58.156Z,4.28
2023-04-27T09:55:51.640Z,4.32
2023-04-27T09:59:05.697Z,4.13
2023-04-27T10:02:09.960Z,4.35
2023-04-27T10:05:21.671Z,4.20
2023-04-27T10:08:07.686Z,4.05
2023-04-27T10:10:53.619Z,4.10
2023-04-27T10:13:39.560Z,4.57
2023-04-27T10:16:25.314Z,4.20
2023-04-27T10:19:11.109Z,4.25
2023-04-27T10:21:58.542Z,4.20
2023-04-27T10:24:49.475Z,3.90
2023-04-27T10:27:39.494Z,4.50
2023-04-27T10:30:27.235Z,4.38
2023-04-27T10:33:16.791Z,4.32
2023-04-27T10:36:02.349Z,4.20
2023-04-27T10:38:56.415Z,4.25
2023-04-27T10:41:50.316Z,4.20
2023-04-27T10:44:37.263Z,4.28
2023-04-27T10:47:22.892Z,4.15
2023-04-27T10:50:10.886Z,4.13
2023-04-27T10:53:01.115Z,5.10
2023-04-27T10:55:46.813Z,4.20
2023-04-27T10:58:48.247Z,4.43
2023-04-27T11:01:35.586Z,4.22
2023-04-27T11:04:21.046Z,4.55
2023-04-27T11:07:10.245Z,4.53
2023-04-27T11:09:55.860Z,4.20
2023-04-27T11:12:41.263Z,4.28
2023-04-27T11:15:26.482Z,3.97
2023-04-27T11:18:11.685Z,4.43
2023-04-27T11:21:14.585Z,4.35
2023-04-27T11:24:07.003Z,4.05
2023-04-27T11:26:52.507Z,4.45
2023-04-27T11:29:38.571Z,4.30
2023-04-27T11:32:24.088Z,4.05
2023-04-27T11:35:09.563Z,4.13
2023-04-27T11:37:58.319Z,3.95
2023-04-27T11:40:44.452Z,4.55
2023-04-27T11:43:30.268Z,4.20
2023-04-27T11:46:15.725Z,3.83
2023-04-27T11:49:02.246Z,4.43
2023-04-27T11:51:47.967Z,4.53
2023-04-27T11:54:33.023Z,4.00
2023-04-27T11:57:18.926Z,4.57
2023-04-27T12:00:05.724Z,4.10
2023-04-27T12:02:58.635Z,4.38
2023-04-27T12:05:51.379Z,3.88
2023-04-27T12:08:36.622Z,4.00
2023-04-27T12:11:21.638Z,4.07
2023-04-27T12:14:06.954Z,4.50
2023-04-27T12:16:52.516Z,4.07
2023-04-27T12:19:37.916Z,3.72
2023-04-27T12:22:23.161Z,3.95
2023-04-27T12:25:08.478Z,4.30
2023-04-27T12:27:53.848Z,4.28
2023-04-27T12:30:39.413Z,3.88
2023-04-27T12:33:24.949Z,3.85
2023-04-27T12:36:10.286Z,3.90
2023-04-27T12:39:00.295Z,4.05
2023-04-27T12:41:47.430Z,4.22
2023-04-27T12:44:32.843Z,4.30
2023-04-27T12:47:40.573Z,3.92
2023-04-27T12:50:23.968Z,3.85
2023-04-27T12:53:09.192Z,4.00
2023-04-27T12:55:54.452Z,4.13
2023-04-27T12:58:39.636Z,3.92
2023-04-27T13:01:26.427Z,4.47
2023-04-27T13:04:20.444Z,4.10
2023-04-27T13:07:06.293Z,4.22
2023-04-27T13:09:51.567Z,3.58
2023-04-27T13:12:36.768Z,3.50
2023-04-27T13:15:22.078Z,3.33
2023-04-27T13:18:07.262Z,3.13
2023-04-27T13:20:53.107Z,4.00
2023-04-27T13:23:38.590Z,3.95
2023-04-27T13:26:23.625Z,3.78
2023-04-27T13:29:08.943Z,3.90
2023-04-27T13:31:54.016Z,3.80
2023-04-27T13:34:39.200Z,3.80
2023-04-27T13:37:26.988Z,3.50
2023-04-27T13:40:12.820Z,3.72
2023-04-27T13:42:58.375Z,3.45
2023-04-27T13:45:43.594Z,3.90
2023-04-27T13:48:29.662Z,3.45
2023-04-27T13:51:15.104Z,3.60
2023-04-27T13:54:00.532Z,3.78
2023-04-27T13:56:46.282Z,3.50
2023-04-27T13:59:31.448Z,3.85
2023-04-27T14:02:16.785Z,3.90
2023-04-27T14:05:02.094Z,3.75
2023-04-27T14:07:47.444Z,3.90
2023-04-27T14:10:33.371Z,3.70
2023-04-27T14:13:20.114Z,4.10
2023-04-27T14:16:06.887Z,3.60
2023-04-27T14:18:52.766Z,3.72
2023-04-27T14:21:38.638Z,3.53
2023-04-27T14:24:24.195Z,3.35
2023-04-27T14:27:09.648Z,3.38
2023-04-27T14:29:55.064Z,3.38
2023-04-27T14:32:40.384Z,3.85
2023-04-27T14:35:25.502Z,3.45
2023-04-27T14:38:10.843Z,3.63
2023-04-27T14:40:56.337Z,3.70
2023-04-27T14:43:41.824Z,3.30
2023-04-27T14:46:27.405Z,3.70
2023-04-27T14:49:12.771Z,3.22
2023-04-27T14:51:58.425Z,3.50
2023-04-27T14:54:43.638Z,3.65
2023-04-27T14:57:29.002Z,3.53
2023-04-27T15:00:15.038Z,3.25
2023-04-27T15:03:00.550Z,3.42
2023-04-27T15:05:45.860Z,3.22
2023-04-27T15:08:34.281Z,4.00
2023-04-27T15:11:20.008Z,4.03
2023-04-27T15:14:05.257Z,4.25
2023-04-27T15:16:51.241Z,4.20
2023-04-27T15:19:37.086Z,4.18
2023-04-27T15:22:22.971Z,4.22
2023-04-27T15:25:09.033Z,4.28
2023-04-27T15:27:54.729Z,4.25
2023-04-27T15:30:39.912Z,3.90
2023-04-27T15:33:25.569Z,4.05
2023-04-27T15:36:11.491Z,4.70
2023-04-27T15:38:57.494Z,4.80
2023-04-27T15:41:43.283Z,4.30
2023-04-27T15:44:28.752Z,4.55
2023-04-27T15:47:14.755Z,4.43
2023-04-27T15:50:00.298Z,4.20
2023-04-27T15:52:45.806Z,4.10
2023-04-27T15:55:32.158Z,4.50
2023-04-27T15:58:17.394Z,4.43
2023-04-27T16:01:03.044Z,4.38
2023-04-27T16:03:48.553Z,4.40
2023-04-27T16:06:35.042Z,4.40
2023-04-27T16:09:20.586Z,4.18
2023-04-27T16:12:05.890Z,4.38
2023-04-27T16:14:51.234Z,4.88
2023-04-27T16:17:36.914Z,4.38
2023-04-27T16:20:22.026Z,4.25
2023-04-27T16:23:07.533Z,4.18
2023-04-27T16:25:52.963Z,4.20
2023-04-27T16:28:38.325Z,4.07
2023-04-27T16:31:23.965Z,4.20
2023-04-27T16:34:09.052Z,4.30
2023-04-27T16:36:54.965Z,4.10
2023-04-27T16:39:40.229Z,4.40
2023-04-27T16:42:25.902Z,4.97
2023-04-27T16:45:12.690Z,4.40
2023-04-27T16:47:58.263Z,5.00
2023-04-27T16:50:43.458Z,4.50
2023-04-27T16:53:28.602Z,4.32
2023-04-27T16:56:14.084Z,4.50
2023-04-27T16:58:59.694Z,4.60
2023-04-27T17:01:45.268Z,4.80
2023-04-27T17:04:30.605Z,4.35
2023-04-27T17:07:15.857Z,5.00
2023-04-27T17:10:01.372Z,4.55
2023-04-27T17:12:46.510Z,4.18
2023-04-27T17:15:31.939Z,5.07
2023-04-27T17:18:17.635Z,5.15
2023-04-27T17:21:03.244Z,5.38
2023-04-27T17:23:48.577Z,4.70
2023-04-27T17:26:34.004Z,4.50
2023-04-27T17:29:19.207Z,4.57
2023-04-27T17:32:05.350Z,4.47
2023-04-27T17:34:50.528Z,4.60
2023-04-27T17:37:36.060Z,3.83
2023-04-27T17:40:21.451Z,4.18
2023-04-27T17:43:08.725Z,4.30
2023-04-27T17:45:54.143Z,4.07
2023-04-27T17:48:39.342Z,4.32
2023-04-27T17:51:24.654Z,4.22
2023-04-27T17:54:09.919Z,4.05
2023-04-27T17:56:55.287Z,4.28
2023-04-27T17:59:41.179Z,4.70
2023-04-27T18:02:26.519Z,4.40
2023-04-27T18:05:12.144Z,4.60
2023-04-27T18:07:57.586Z,4.18
2023-04-27T18:10:44.065Z,4.38
2023-04-27T18:13:29.698Z,4.40
2023-04-27T18:16:14.955Z,4.50
2023-04-27T18:19:04.614Z,4.18
2023-04-27T18:21:50.241Z,4.13
2023-04-27T18:24:36.956Z,4.53
2023-04-27T18:27:22.502Z,3.92
2023-04-27T18:30:09.994Z,4.05
2023-04-27T18:32:57.145Z,4.30
2023-04-27T18:35:42.290Z,4.55
2023-04-27T18:38:27.571Z,4.70
2023-04-27T18:41:15.962Z,4.88
2023-04-27T18:44:05.757Z,4.68
2023-04-27T18:46:51.140Z,4.55
2023-04-27T18:49:36.376Z,4.30
2023-04-27T18:52:21.688Z,4.38
2023-04-27T18:55:09.764Z,4.70
2023-04-27T18:57:55.302Z,4.70
2023-04-27T19:00:41.041Z,4.75
2023-04-27T19:03:27.501Z,5.05
2023-04-27T19:06:15.022Z,4.85
2023-04-27T19:09:02.815Z,5.25
2023-04-27T19:11:55.972Z,4.90
2023-04-27T19:14:45.853Z,4.85
2023-04-27T19:17:31.211Z,5.32
2023-04-27T19:20:16.596Z,5.22
2023-04-27T19:23:03.980Z,5.47
2023-04-27T19:25:49.768Z,5.95
2023-04-27T19:28:35.732Z,4.97
2023-04-27T19:31:21.276Z,5.53
2023-04-27T19:34:07.001Z,5.20
2023-04-27T19:36:52.190Z,5.03
2023-04-27T19:39:38.046Z,5.45
2023-04-27T19:42:23.467Z,5.70
2023-04-27T19:45:09.161Z,5.82
2023-04-27T19:47:54.380Z,6.35
2023-04-27T19:50:43.478Z,6.03
2023-04-27T19:53:28.886Z,6.00
2023-04-27T19:56:14.370Z,5.80
2023-04-27T19:59:00.034Z,5.90
2023-04-27T20:01:45.975Z,6.40
2023-04-27T20:04:31.381Z,6.22
2023-04-27T20:07:19.986Z,6.53
2023-04-27T20:10:08.097Z,6.18
2023-04-27T20:12:57.213Z,6.07
2023-04-27T20:15:43.938Z,6.15
2023-04-27T20:18:29.429Z,6.13
2023-04-27T20:21:14.694Z,6.55
2023-04-27T20:24:00.300Z,6.65
2023-04-27T20:26:45.516Z,6.18
2023-04-27T20:29:32.470Z,6.50
2023-04-27T20:32:17.733Z,6.50
2023-04-27T20:35:04.388Z,7.00
2023-04-27T20:37:49.795Z,6.30
2023-04-27T20:40:35.166Z,6.60
2023-04-27T20:43:20.644Z,6.80
2023-04-27T20:46:11.586Z,6.67
2023-04-27T20:48:57.189Z,6.50
2023-04-27T20:51:42.524Z,6.97
2023-04-27T20:54:28.123Z,6.68
2023-04-27T20:57:13.430Z,6.97
2023-04-27T20:59:58.927Z,6.60
2023-04-27T21:02:44.522Z,6.90
2023-04-27T21:05:31.559Z,7.37
2023-04-27T21:08:16.966Z,6.60
2023-04-27T21:11:02.302Z,6.93
2023-04-27T21:13:47.592Z,7.33
2023-04-27T21:16:32.772Z,6.77
2023-04-27T21:19:17.857Z,7.10
2023-04-27T21:22:03.392Z,7.73
2023-04-27T21:24:48.870Z,7.60
2023-04-27T21:27:34.180Z,7.27
2023-04-27T21:30:19.942Z,7.83
2023-04-27T21:33:05.626Z,7.43
2023-04-27T21:35:51.123Z,6.87
2023-04-27T21:38:36.524Z,7.40
2023-04-27T21:41:22.176Z,7.40
2023-04-27T21:44:07.290Z,7.63
2023-04-27T21:46:52.719Z,7.13
2023-04-27T21:49:38.115Z,6.67
2023-04-27T21:52:23.708Z,6.27
2023-04-27T21:55:09.211Z,7.17
2023-04-27T21:57:54.444Z,6.73
2023-04-27T22:00:39.595Z,7.07
2023-04-27T22:03:24.962Z,7.33
2023-04-27T22:06:10.707Z,6.77
2023-04-27T22:08:56.144Z,6.17
2023-04-27T22:11:41.127Z,6.60
2023-04-27T22:14:26.446Z,6.50
2023-04-27T22:17:11.593Z,6.60
2023-04-27T22:19:57.323Z,6.40
2023-04-27T22:22:42.948Z,7.10
2023-04-27T22:25:28.311Z,6.60
2023-04-27T22:28:13.868Z,6.80
2023-04-27T22:31:00.340Z,6.50
2023-04-27T22:33:45.450Z,6.93
2023-04-27T22:36:31.021Z,7.13
2023-04-27T22:39:16.534Z,6.93
2023-04-27T22:42:02.116Z,6.83
2023-04-27T22:44:47.366Z,7.43
2023-04-27T22:47:32.546Z,7.00
2023-04-27T22:50:18.253Z,7.03
2023-04-27T22:53:03.676Z,7.40
2023-04-27T22:55:49.090Z,7.87
2023-04-27T22:58:34.362Z,8.03
2023-04-27T23:01:19.907Z,7.10
2023-04-27T23:04:05.802Z,6.80
2023-04-27T23:06:51.421Z,7.60
2023-04-27T23:09:37.175Z,6.70
2023-04-27T23:12:22.583Z,7.57
2023-04-27T23:15:08.314Z,7.37
2023-04-27T23:17:53.525Z,7.17
2023-04-27T23:20:38.705Z,7.40
2023-04-27T23:23:23.957Z,7.13
2023-04-27T23:26:16.126Z,6.73
2023-04-27T23:29:01.510Z,6.90
2023-04-27T23:31:46.861Z,6.47
2023-04-27T23:34:32.072Z,6.87
2023-04-27T23:37:17.507Z,6.80
2023-04-27T23:40:03.027Z,6.80
2023-04-27T23:42:49.648Z,7.33
2023-04-27T23:45:36.558Z,7.13
2023-04-27T23:48:22.008Z,6.83
2023-04-27T23:51:07.127Z,6.80
2023-04-27T23:53:52.528Z,7.40
2023-04-27T23:56:37.837Z,6.90
2023-04-27T23:59:23.181Z,7.07
